sensor_id;sensor_type;location;lat;lon;timestamp;temperature;humidity
76263;DHT22;65080;50.908;6.916;2023-06-14T00:00:02;23.00;37.10
76263;DHT22;65080;50.908;6.916;2023-06-14T00:02:32;22.90;37.30
76263;DHT22;65080;50.908;6.916;2023-06-14T00:05:00;22.80;37.40
76263;DHT22;65080;50.908;6.916;2023-06-14T00:07:38;22.80;37.60
76263;DHT22;65080;50.908;6.916;2023-06-14T00:10:11;22.80;37.70
76263;DHT22;65080;50.908;6.916;2023-06-14T00:12:40;22.70;37.60
76263;DHT22;65080;50.908;6.916;2023-06-14T00:15:09;22.60;37.70
76263;DHT22;65080;50.908;6.916;2023-06-14T00:17:37;22.50;37.90
76263;DHT22;65080;50.908;6.916;2023-06-14T00:20:07;22.40;38.10
76263;DHT22;65080;50.908;6.916;2023-06-14T00:22:38;22.20;38.20
76263;DHT22;65080;50.908;6.916;2023-06-14T00:25:06;22.20;38.60
76263;DHT22;65080;50.908;6.916;2023-06-14T00:27:55;22.10;38.80
76263;DHT22;65080;50.908;6.916;2023-06-14T00:30:24;22.00;39.10
76263;DHT22;65080;50.908;6.916;2023-06-14T00:32:52;21.90;39.40
76263;DHT22;65080;50.908;6.916;2023-06-14T00:35:20;21.90;39.60
76263;DHT22;65080;50.908;6.916;2023-06-14T00:37:50;21.90;39.80
76263;DHT22;65080;50.908;6.916;2023-06-14T00:40:18;21.80;39.80
76263;DHT22;65080;50.908;6.916;2023-06-14T00:42:46;21.80;40.00
76263;DHT22;65080;50.908;6.916;2023-06-14T00:45:15;21.70;40.00
76263;DHT22;65080;50.908;6.916;2023-06-14T00:47:43;21.70;40.10
76263;DHT22;65080;50.908;6.916;2023-06-14T00:54:02;21.60;40.70
76263;DHT22;65080;50.908;6.916;2023-06-14T00:56:30;21.50;40.30
76263;DHT22;65080;50.908;6.916;2023-06-14T00:58:59;21.40;40.50
76263;DHT22;65080;50.908;6.916;2023-06-14T01:01:28;21.40;40.90
76263;DHT22;65080;50.908;6.916;2023-06-14T01:03:59;21.40;41.00
76263;DHT22;65080;50.908;6.916;2023-06-14T01:06:33;21.30;41.10
76263;DHT22;65080;50.908;6.916;2023-06-14T01:09:18;21.30;41.30
76263;DHT22;65080;50.908;6.916;2023-06-14T01:11:55;21.20;41.40
76263;DHT22;65080;50.908;6.916;2023-06-14T01:14:25;21.10;41.60
76263;DHT22;65080;50.908;6.916;2023-06-14T01:16:57;21.00;41.70
76263;DHT22;65080;50.908;6.916;2023-06-14T01:19:27;20.90;41.90
76263;DHT22;65080;50.908;6.916;2023-06-14T01:21:56;20.90;41.90
76263;DHT22;65080;50.908;6.916;2023-06-14T01:24:26;20.90;42.10
76263;DHT22;65080;50.908;6.916;2023-06-14T01:27:00;20.90;42.30
76263;DHT22;65080;50.908;6.916;2023-06-14T01:29:29;20.80;42.30
76263;DHT22;65080;50.908;6.916;2023-06-14T01:32:00;20.80;42.50
76263;DHT22;65080;50.908;6.916;2023-06-14T01:34:28;20.80;42.70
76263;DHT22;65080;50.908;6.916;2023-06-14T01:36:57;20.80;42.80
76263;DHT22;65080;50.908;6.916;2023-06-14T01:39:30;20.80;42.90
76263;DHT22;65080;50.908;6.916;2023-06-14T01:41:59;20.70;42.80
76263;DHT22;65080;50.908;6.916;2023-06-14T01:44:28;20.70;42.90
76263;DHT22;65080;50.908;6.916;2023-06-14T01:46:57;20.70;43.00
76263;DHT22;65080;50.908;6.916;2023-06-14T01:49:26;20.70;43.20
76263;DHT22;65080;50.908;6.916;2023-06-14T01:51:55;20.60;43.20
76263;DHT22;65080;50.908;6.916;2023-06-14T01:54:23;20.60;43.40
76263;DHT22;65080;50.908;6.916;2023-06-14T01:56:54;20.50;43.60
76263;DHT22;65080;50.908;6.916;2023-06-14T01:59:23;20.40;43.70
76263;DHT22;65080;50.908;6.916;2023-06-14T02:01:51;20.20;44.00
76263;DHT22;65080;50.908;6.916;2023-06-14T02:04:19;20.20;44.20
76263;DHT22;65080;50.908;6.916;2023-06-14T02:06:47;20.20;44.20
76263;DHT22;65080;50.908;6.916;2023-06-14T02:09:16;20.10;44.20
76263;DHT22;65080;50.908;6.916;2023-06-14T02:11:44;20.10;44.30
76263;DHT22;65080;50.908;6.916;2023-06-14T02:14:13;20.00;44.40
76263;DHT22;65080;50.908;6.916;2023-06-14T02:16:43;19.90;44.50
76263;DHT22;65080;50.908;6.916;2023-06-14T02:19:16;19.90;44.70
76263;DHT22;65080;50.908;6.916;2023-06-14T02:21:45;19.80;44.80
76263;DHT22;65080;50.908;6.916;2023-06-14T02:24:14;19.80;44.90
76263;DHT22;65080;50.908;6.916;2023-06-14T02:26:42;19.80;45.00
76263;DHT22;65080;50.908;6.916;2023-06-14T02:29:11;19.80;45.10
76263;DHT22;65080;50.908;6.916;2023-06-14T02:31:43;19.80;45.20
76263;DHT22;65080;50.908;6.916;2023-06-14T02:34:11;19.80;45.30
76263;DHT22;65080;50.908;6.916;2023-06-14T02:36:39;19.80;45.40
76263;DHT22;65080;50.908;6.916;2023-06-14T02:39:08;19.80;45.40
76263;DHT22;65080;50.908;6.916;2023-06-14T02:41:37;19.80;45.40
76263;DHT22;65080;50.908;6.916;2023-06-14T02:44:06;19.80;45.60
76263;DHT22;65080;50.908;6.916;2023-06-14T02:46:34;19.80;45.70
76263;DHT22;65080;50.908;6.916;2023-06-14T02:49:04;19.70;45.70
76263;DHT22;65080;50.908;6.916;2023-06-14T02:51:32;19.70;45.80
76263;DHT22;65080;50.908;6.916;2023-06-14T02:54:00;19.70;45.80
76263;DHT22;65080;50.908;6.916;2023-06-14T02:56:29;19.70;45.70
76263;DHT22;65080;50.908;6.916;2023-06-14T02:58:57;19.70;45.80
76263;DHT22;65080;50.908;6.916;2023-06-14T03:01:25;19.70;45.80
76263;DHT22;65080;50.908;6.916;2023-06-14T03:04:00;19.60;45.70
76263;DHT22;65080;50.908;6.916;2023-06-14T03:06:31;19.60;45.80
76263;DHT22;65080;50.908;6.916;2023-06-14T03:09:00;19.60;45.90
76263;DHT22;65080;50.908;6.916;2023-06-14T03:11:32;19.60;46.40
76263;DHT22;65080;50.908;6.916;2023-06-14T03:14:00;19.50;46.10
76263;DHT22;65080;50.908;6.916;2023-06-14T03:16:30;19.50;46.30
76263;DHT22;65080;50.908;6.916;2023-06-14T03:18:58;19.40;46.20
76263;DHT22;65080;50.908;6.916;2023-06-14T03:21:27;19.30;46.20
76263;DHT22;65080;50.908;6.916;2023-06-14T03:23:57;19.30;46.20
76263;DHT22;65080;50.908;6.916;2023-06-14T03:26:25;19.20;46.40
76263;DHT22;65080;50.908;6.916;2023-06-14T03:28:53;19.20;46.50
76263;DHT22;65080;50.908;6.916;2023-06-14T03:31:21;19.20;46.60
76263;DHT22;65080;50.908;6.916;2023-06-14T03:33:50;19.10;46.60
76263;DHT22;65080;50.908;6.916;2023-06-14T03:36:19;19.20;46.70
76263;DHT22;65080;50.908;6.916;2023-06-14T03:38:47;19.10;46.70
76263;DHT22;65080;50.908;6.916;2023-06-14T03:41:16;19.10;46.80
76263;DHT22;65080;50.908;6.916;2023-06-14T03:43:44;19.10;46.90
76263;DHT22;65080;50.908;6.916;2023-06-14T03:46:13;19.20;47.00
76263;DHT22;65080;50.908;6.916;2023-06-14T03:48:41;19.10;46.90
76263;DHT22;65080;50.908;6.916;2023-06-14T03:51:09;19.10;47.00
76263;DHT22;65080;50.908;6.916;2023-06-14T03:53:37;19.20;47.10
76263;DHT22;65080;50.908;6.916;2023-06-14T03:56:26;19.20;47.10
76263;DHT22;65080;50.908;6.916;2023-06-14T03:58:54;19.10;47.00
76263;DHT22;65080;50.908;6.916;2023-06-14T04:01:23;19.10;47.10
76263;DHT22;65080;50.908;6.916;2023-06-14T04:03:56;19.10;47.10
76263;DHT22;65080;50.908;6.916;2023-06-14T04:06:26;19.10;47.20
76263;DHT22;65080;50.908;6.916;2023-06-14T04:08:59;19.10;47.20
76263;DHT22;65080;50.908;6.916;2023-06-14T04:11:32;19.10;47.30
76263;DHT22;65080;50.908;6.916;2023-06-14T04:14:01;19.10;47.40
76263;DHT22;65080;50.908;6.916;2023-06-14T04:16:29;19.20;47.40
76263;DHT22;65080;50.908;6.916;2023-06-14T04:18:58;19.20;47.50
76263;DHT22;65080;50.908;6.916;2023-06-14T04:21:26;19.20;47.60
76263;DHT22;65080;50.908;6.916;2023-06-14T04:23:56;19.20;47.60
76263;DHT22;65080;50.908;6.916;2023-06-14T04:26:24;19.20;47.60
76263;DHT22;65080;50.908;6.916;2023-06-14T04:28:58;19.20;47.70
76263;DHT22;65080;50.908;6.916;2023-06-14T04:31:28;19.20;47.80
76263;DHT22;65080;50.908;6.916;2023-06-14T04:34:00;19.30;47.80
76263;DHT22;65080;50.908;6.916;2023-06-14T04:36:32;19.30;47.90
76263;DHT22;65080;50.908;6.916;2023-06-14T04:39:03;19.40;47.90
76263;DHT22;65080;50.908;6.916;2023-06-14T04:41:33;19.40;48.00
76263;DHT22;65080;50.908;6.916;2023-06-14T04:44:03;19.40;48.20
76263;DHT22;65080;50.908;6.916;2023-06-14T04:46:31;19.40;48.30
76263;DHT22;65080;50.908;6.916;2023-06-14T04:49:00;19.40;48.20
76263;DHT22;65080;50.908;6.916;2023-06-14T04:51:30;19.50;48.30
76263;DHT22;65080;50.908;6.916;2023-06-14T04:54:00;19.50;48.30
76263;DHT22;65080;50.908;6.916;2023-06-14T04:56:30;19.60;48.40
76263;DHT22;65080;50.908;6.916;2023-06-14T04:58:58;19.70;48.60
76263;DHT22;65080;50.908;6.916;2023-06-14T05:01:28;19.70;48.50
76263;DHT22;65080;50.908;6.916;2023-06-14T05:03:56;19.80;48.40
76263;DHT22;65080;50.908;6.916;2023-06-14T05:06:24;19.90;48.10
76263;DHT22;65080;50.908;6.916;2023-06-14T05:08:53;19.90;48.10
76263;DHT22;65080;50.908;6.916;2023-06-14T05:11:21;20.00;47.80
76263;DHT22;65080;50.908;6.916;2023-06-14T05:13:51;20.00;47.60
76263;DHT22;65080;50.908;6.916;2023-06-14T05:16:19;20.10;46.80
76263;DHT22;65080;50.908;6.916;2023-06-14T05:18:52;20.30;46.30
76263;DHT22;65080;50.908;6.916;2023-06-14T05:21:20;20.30;45.90
76263;DHT22;65080;50.908;6.916;2023-06-14T05:23:48;20.30;45.40
76263;DHT22;65080;50.908;6.916;2023-06-14T05:26:18;20.50;45.00
76263;DHT22;65080;50.908;6.916;2023-06-14T05:28:47;20.50;44.70
76263;DHT22;65080;50.908;6.916;2023-06-14T05:31:15;20.60;44.40
76263;DHT22;65080;50.908;6.916;2023-06-14T05:33:43;20.70;44.10
76263;DHT22;65080;50.908;6.916;2023-06-14T05:36:13;20.70;43.70
76263;DHT22;65080;50.908;6.916;2023-06-14T05:38:41;20.80;43.10
76263;DHT22;65080;50.908;6.916;2023-06-14T05:41:09;20.80;42.50
76263;DHT22;65080;50.908;6.916;2023-06-14T05:43:38;20.80;42.60
76263;DHT22;65080;50.908;6.916;2023-06-14T05:46:06;20.90;41.80
76263;DHT22;65080;50.908;6.916;2023-06-14T05:48:34;20.90;41.70
76263;DHT22;65080;50.908;6.916;2023-06-14T05:51:02;21.00;41.60
76263;DHT22;65080;50.908;6.916;2023-06-14T05:53:32;21.00;41.60
76263;DHT22;65080;50.908;6.916;2023-06-14T05:56:00;21.10;41.70
76263;DHT22;65080;50.908;6.916;2023-06-14T05:58:28;21.20;41.40
76263;DHT22;65080;50.908;6.916;2023-06-14T06:00:57;21.20;41.10
76263;DHT22;65080;50.908;6.916;2023-06-14T06:03:25;21.20;41.00
76263;DHT22;65080;50.908;6.916;2023-06-14T06:05:56;21.30;41.00
76263;DHT22;65080;50.908;6.916;2023-06-14T06:08:25;21.40;40.70
76263;DHT22;65080;50.908;6.916;2023-06-14T06:10:55;21.50;40.40
76263;DHT22;65080;50.908;6.916;2023-06-14T06:13:24;21.50;40.20
76263;DHT22;65080;50.908;6.916;2023-06-14T06:15:52;21.60;40.20
76263;DHT22;65080;50.908;6.916;2023-06-14T06:18:21;21.60;40.10
76263;DHT22;65080;50.908;6.916;2023-06-14T06:20:49;21.60;39.70
76263;DHT22;65080;50.908;6.916;2023-06-14T06:23:18;21.60;39.60
76263;DHT22;65080;50.908;6.916;2023-06-14T06:25:46;21.60;39.70
76263;DHT22;65080;50.908;6.916;2023-06-14T06:28:16;21.70;40.30
76263;DHT22;65080;50.908;6.916;2023-06-14T06:30:44;21.70;39.70
76263;DHT22;65080;50.908;6.916;2023-06-14T06:33:13;21.80;39.60
76263;DHT22;65080;50.908;6.916;2023-06-14T06:35:42;21.80;39.40
76263;DHT22;65080;50.908;6.916;2023-06-14T06:38:10;21.90;39.40
76263;DHT22;65080;50.908;6.916;2023-06-14T06:40:38;21.90;39.30
76263;DHT22;65080;50.908;6.916;2023-06-14T06:43:06;22.00;39.40
76263;DHT22;65080;50.908;6.916;2023-06-14T06:45:36;22.00;39.10
76263;DHT22;65080;50.908;6.916;2023-06-14T06:48:04;22.10;39.30
76263;DHT22;65080;50.908;6.916;2023-06-14T06:50:33;22.10;39.00
76263;DHT22;65080;50.908;6.916;2023-06-14T06:53:01;22.10;38.90
76263;DHT22;65080;50.908;6.916;2023-06-14T06:55:29;22.10;38.90
76263;DHT22;65080;50.908;6.916;2023-06-14T06:57:58;22.20;39.10
76263;DHT22;65080;50.908;6.916;2023-06-14T07:00:27;22.30;39.10
76263;DHT22;65080;50.908;6.916;2023-06-14T07:02:57;22.40;39.00
76263;DHT22;65080;50.908;6.916;2023-06-14T07:05:26;22.40;38.70
76263;DHT22;65080;50.908;6.916;2023-06-14T07:07:54;22.50;38.60
76263;DHT22;65080;50.908;6.916;2023-06-14T07:10:24;22.50;38.40
76263;DHT22;65080;50.908;6.916;2023-06-14T07:12:52;22.50;38.40
76263;DHT22;65080;50.908;6.916;2023-06-14T07:15:21;22.60;38.50
76263;DHT22;65080;50.908;6.916;2023-06-14T07:17:49;22.60;38.50
76263;DHT22;65080;50.908;6.916;2023-06-14T07:20:19;22.70;38.90
76263;DHT22;65080;50.908;6.916;2023-06-14T07:22:49;22.70;38.80
76263;DHT22;65080;50.908;6.916;2023-06-14T07:25:18;22.80;38.50
76263;DHT22;65080;50.908;6.916;2023-06-14T07:27:47;22.80;38.40
76263;DHT22;65080;50.908;6.916;2023-06-14T07:30:15;22.80;38.30
76263;DHT22;65080;50.908;6.916;2023-06-14T07:32:43;22.90;38.40
76263;DHT22;65080;50.908;6.916;2023-06-14T07:35:12;22.90;38.40
76263;DHT22;65080;50.908;6.916;2023-06-14T07:37:42;23.00;38.40
76263;DHT22;65080;50.908;6.916;2023-06-14T07:40:11;23.00;39.00
76263;DHT22;65080;50.908;6.916;2023-06-14T07:42:39;23.10;38.30
76263;DHT22;65080;50.908;6.916;2023-06-14T07:45:08;23.10;38.20
76263;DHT22;65080;50.908;6.916;2023-06-14T07:47:36;23.20;37.90
76263;DHT22;65080;50.908;6.916;2023-06-14T07:50:05;23.20;37.70
76263;DHT22;65080;50.908;6.916;2023-06-14T07:52:33;23.20;37.50
76263;DHT22;65080;50.908;6.916;2023-06-14T07:55:03;23.30;37.60
76263;DHT22;65080;50.908;6.916;2023-06-14T07:57:32;23.30;37.60
76263;DHT22;65080;50.908;6.916;2023-06-14T08:00:00;23.40;37.10
76263;DHT22;65080;50.908;6.916;2023-06-14T08:02:29;23.40;36.20
76263;DHT22;65080;50.908;6.916;2023-06-14T08:04:57;23.50;35.90
76263;DHT22;65080;50.908;6.916;2023-06-14T08:07:25;23.50;35.20
76263;DHT22;65080;50.908;6.916;2023-06-14T08:09:54;23.50;34.80
76263;DHT22;65080;50.908;6.916;2023-06-14T08:12:23;23.60;34.80
76263;DHT22;65080;50.908;6.916;2023-06-14T08:14:51;23.70;34.60
76263;DHT22;65080;50.908;6.916;2023-06-14T08:17:35;23.70;34.40
76263;DHT22;65080;50.908;6.916;2023-06-14T08:20:04;23.70;34.30
76263;DHT22;65080;50.908;6.916;2023-06-14T08:22:33;23.70;34.00
76263;DHT22;65080;50.908;6.916;2023-06-14T08:25:03;23.80;33.80
76263;DHT22;65080;50.908;6.916;2023-06-14T08:27:33;23.80;33.30
76263;DHT22;65080;50.908;6.916;2023-06-14T08:30:02;23.80;32.90
76263;DHT22;65080;50.908;6.916;2023-06-14T08:32:30;23.90;32.90
76263;DHT22;65080;50.908;6.916;2023-06-14T08:34:58;24.00;32.70
76263;DHT22;65080;50.908;6.916;2023-06-14T08:37:32;24.00;32.10
76263;DHT22;65080;50.908;6.916;2023-06-14T08:40:02;24.10;31.80
76263;DHT22;65080;50.908;6.916;2023-06-14T08:42:35;24.10;31.60
76263;DHT22;65080;50.908;6.916;2023-06-14T08:45:05;24.20;32.20
76263;DHT22;65080;50.908;6.916;2023-06-14T08:47:33;24.20;31.60
76263;DHT22;65080;50.908;6.916;2023-06-14T08:50:08;24.30;31.40
76263;DHT22;65080;50.908;6.916;2023-06-14T08:52:55;24.30;31.20
76263;DHT22;65080;50.908;6.916;2023-06-14T08:55:24;24.40;30.70
76263;DHT22;65080;50.908;6.916;2023-06-14T08:57:56;24.50;30.70
76263;DHT22;65080;50.908;6.916;2023-06-14T09:00:26;24.50;30.40
76263;DHT22;65080;50.908;6.916;2023-06-14T09:02:55;24.50;30.30
76263;DHT22;65080;50.908;6.916;2023-06-14T09:05:25;24.60;30.30
76263;DHT22;65080;50.908;6.916;2023-06-14T09:07:53;24.60;30.00
76263;DHT22;65080;50.908;6.916;2023-06-14T09:10:25;24.70;30.00
76263;DHT22;65080;50.908;6.916;2023-06-14T09:12:55;24.70;30.00
76263;DHT22;65080;50.908;6.916;2023-06-14T09:15:23;24.80;30.00
76263;DHT22;65080;50.908;6.916;2023-06-14T09:17:53;24.80;30.00
76263;DHT22;65080;50.908;6.916;2023-06-14T09:20:24;24.80;30.00
76263;DHT22;65080;50.908;6.916;2023-06-14T09:22:53;24.80;30.20
76263;DHT22;65080;50.908;6.916;2023-06-14T09:25:21;24.80;30.40
76263;DHT22;65080;50.908;6.916;2023-06-14T09:28:08;24.80;31.00
76263;DHT22;65080;50.908;6.916;2023-06-14T09:30:37;24.90;30.30
76263;DHT22;65080;50.908;6.916;2023-06-14T09:33:05;24.90;30.10
76263;DHT22;65080;50.908;6.916;2023-06-14T09:35:34;24.90;30.00
76263;DHT22;65080;50.908;6.916;2023-06-14T09:38:03;24.90;30.00
76263;DHT22;65080;50.908;6.916;2023-06-14T09:40:34;24.90;30.00
76263;DHT22;65080;50.908;6.916;2023-06-14T09:43:07;24.90;29.90
76263;DHT22;65080;50.908;6.916;2023-06-14T09:45:38;25.00;30.00
76263;DHT22;65080;50.908;6.916;2023-06-14T09:48:07;25.00;30.70
76263;DHT22;65080;50.908;6.916;2023-06-14T09:50:37;24.90;30.00
76263;DHT22;65080;50.908;6.916;2023-06-14T09:53:07;25.00;30.00
76263;DHT22;65080;50.908;6.916;2023-06-14T09:55:36;25.00;29.90
76263;DHT22;65080;50.908;6.916;2023-06-14T09:58:07;25.00;30.00
76263;DHT22;65080;50.908;6.916;2023-06-14T10:00:36;25.10;30.10
76263;DHT22;65080;50.908;6.916;2023-06-14T10:03:14;25.20;30.00
76263;DHT22;65080;50.908;6.916;2023-06-14T10:05:45;25.20;30.00
76263;DHT22;65080;50.908;6.916;2023-06-14T10:08:15;25.20;29.90
76263;DHT22;65080;50.908;6.916;2023-06-14T10:10:46;25.30;29.70
76263;DHT22;65080;50.908;6.916;2023-06-14T10:13:16;25.20;29.60
76263;DHT22;65080;50.908;6.916;2023-06-14T10:15:52;25.20;29.60
76263;DHT22;65080;50.908;6.916;2023-06-14T10:18:31;25.20;29.70
76263;DHT22;65080;50.908;6.916;2023-06-14T10:21:06;25.30;29.80
76263;DHT22;65080;50.908;6.916;2023-06-14T10:23:38;25.20;29.60
76263;DHT22;65080;50.908;6.916;2023-06-14T10:26:08;25.30;29.50
76263;DHT22;65080;50.908;6.916;2023-06-14T10:28:56;25.50;29.50
76263;DHT22;65080;50.908;6.916;2023-06-14T10:31:40;25.40;29.50
76263;DHT22;65080;50.908;6.916;2023-06-14T10:34:09;25.40;29.70
76263;DHT22;65080;50.908;6.916;2023-06-14T10:36:38;25.50;29.70
76263;DHT22;65080;50.908;6.916;2023-06-14T10:39:13;25.40;29.40
76263;DHT22;65080;50.908;6.916;2023-06-14T10:41:42;25.50;29.50
76263;DHT22;65080;50.908;6.916;2023-06-14T10:44:41;25.40;29.60
76263;DHT22;65080;50.908;6.916;2023-06-14T10:47:20;25.40;29.80
76263;DHT22;65080;50.908;6.916;2023-06-14T10:49:52;25.40;30.00
76263;DHT22;65080;50.908;6.916;2023-06-14T10:52:25;25.50;30.10
76263;DHT22;65080;50.908;6.916;2023-06-14T10:55:13;25.60;30.00
76263;DHT22;65080;50.908;6.916;2023-06-14T10:57:44;25.70;29.40
76263;DHT22;65080;50.908;6.916;2023-06-14T11:00:21;25.70;29.50
76263;DHT22;65080;50.908;6.916;2023-06-14T11:03:43;25.70;29.50
76263;DHT22;65080;50.908;6.916;2023-06-14T11:06:14;25.70;29.30
76263;DHT22;65080;50.908;6.916;2023-06-14T11:09:13;25.80;29.60
76263;DHT22;65080;50.908;6.916;2023-06-14T11:11:48;25.90;29.80
76263;DHT22;65080;50.908;6.916;2023-06-14T11:14:17;26.00;29.80
76263;DHT22;65080;50.908;6.916;2023-06-14T11:16:49;26.10;29.90
76263;DHT22;65080;50.908;6.916;2023-06-14T11:19:17;26.20;29.80
76263;DHT22;65080;50.908;6.916;2023-06-14T11:21:47;26.20;29.60
76263;DHT22;65080;50.908;6.916;2023-06-14T11:24:16;26.20;29.30
76263;DHT22;65080;50.908;6.916;2023-06-14T11:26:47;26.10;29.30
76263;DHT22;65080;50.908;6.916;2023-06-14T11:29:16;26.10;29.40
76263;DHT22;65080;50.908;6.916;2023-06-14T11:31:44;26.20;29.60
76263;DHT22;65080;50.908;6.916;2023-06-14T11:34:14;26.10;29.60
76263;DHT22;65080;50.908;6.916;2023-06-14T11:36:43;26.20;29.90
76263;DHT22;65080;50.908;6.916;2023-06-14T11:39:13;26.20;30.00
76263;DHT22;65080;50.908;6.916;2023-06-14T11:41:42;26.30;30.30
76263;DHT22;65080;50.908;6.916;2023-06-14T11:44:11;26.40;30.30
76263;DHT22;65080;50.908;6.916;2023-06-14T11:46:39;26.40;30.20
76263;DHT22;65080;50.908;6.916;2023-06-14T11:49:08;26.50;30.40
76263;DHT22;65080;50.908;6.916;2023-06-14T11:51:38;26.50;30.40
76263;DHT22;65080;50.908;6.916;2023-06-14T11:54:06;26.60;30.40
76263;DHT22;65080;50.908;6.916;2023-06-14T11:56:36;26.60;30.40
76263;DHT22;65080;50.908;6.916;2023-06-14T11:59:05;26.60;30.40
76263;DHT22;65080;50.908;6.916;2023-06-14T12:01:36;26.60;30.50
76263;DHT22;65080;50.908;6.916;2023-06-14T12:04:06;26.70;31.10
76263;DHT22;65080;50.908;6.916;2023-06-14T12:06:35;26.80;31.10
76263;DHT22;65080;50.908;6.916;2023-06-14T12:09:08;26.70;31.10
76263;DHT22;65080;50.908;6.916;2023-06-14T12:11:40;26.80;31.30
76263;DHT22;65080;50.908;6.916;2023-06-14T12:14:09;26.70;31.30
76263;DHT22;65080;50.908;6.916;2023-06-14T12:16:38;26.80;31.40
76263;DHT22;65080;50.908;6.916;2023-06-14T12:19:09;26.90;31.20
76263;DHT22;65080;50.908;6.916;2023-06-14T12:21:38;26.90;30.90
76263;DHT22;65080;50.908;6.916;2023-06-14T12:24:09;26.90;30.90
76263;DHT22;65080;50.908;6.916;2023-06-14T12:26:40;27.00;31.00
76263;DHT22;65080;50.908;6.916;2023-06-14T12:29:08;27.10;30.70
76263;DHT22;65080;50.908;6.916;2023-06-14T12:31:39;27.10;30.40
76263;DHT22;65080;50.908;6.916;2023-06-14T12:34:08;27.00;30.30
76263;DHT22;65080;50.908;6.916;2023-06-14T12:36:36;27.10;30.30
76263;DHT22;65080;50.908;6.916;2023-06-14T12:39:10;27.10;30.40
76263;DHT22;65080;50.908;6.916;2023-06-14T12:41:38;27.20;30.40
76263;DHT22;65080;50.908;6.916;2023-06-14T12:44:08;27.40;30.20
76263;DHT22;65080;50.908;6.916;2023-06-14T12:46:36;27.50;30.00
76263;DHT22;65080;50.908;6.916;2023-06-14T12:49:08;27.70;30.00
76263;DHT22;65080;50.908;6.916;2023-06-14T12:51:36;27.70;30.00
76263;DHT22;65080;50.908;6.916;2023-06-14T12:54:04;27.80;30.00
76263;DHT22;65080;50.908;6.916;2023-06-14T12:56:34;27.90;29.90
76263;DHT22;65080;50.908;6.916;2023-06-14T12:59:03;28.10;29.80
76263;DHT22;65080;50.908;6.916;2023-06-14T13:01:31;28.30;29.50
76263;DHT22;65080;50.908;6.916;2023-06-14T13:03:59;28.60;29.30
76263;DHT22;65080;50.908;6.916;2023-06-14T13:06:28;28.90;29.10
76263;DHT22;65080;50.908;6.916;2023-06-14T13:08:58;29.20;28.70
76263;DHT22;65080;50.908;6.916;2023-06-14T13:11:26;29.50;28.50
76263;DHT22;65080;50.908;6.916;2023-06-14T13:13:56;30.00;28.20
76263;DHT22;65080;50.908;6.916;2023-06-14T13:16:24;30.30;27.60
76263;DHT22;65080;50.908;6.916;2023-06-14T13:18:53;30.50;27.30
76263;DHT22;65080;50.908;6.916;2023-06-14T13:21:21;30.60;27.20
76263;DHT22;65080;50.908;6.916;2023-06-14T13:23:50;30.80;27.20
76263;DHT22;65080;50.908;6.916;2023-06-14T13:26:18;31.00;27.00
76263;DHT22;65080;50.908;6.916;2023-06-14T13:28:46;31.10;26.60
76263;DHT22;65080;50.908;6.916;2023-06-14T13:31:16;31.20;26.30
76263;DHT22;65080;50.908;6.916;2023-06-14T13:33:44;31.30;26.30
76263;DHT22;65080;50.908;6.916;2023-06-14T13:36:12;31.30;26.10
76263;DHT22;65080;50.908;6.916;2023-06-14T13:38:41;31.40;25.90
76263;DHT22;65080;50.908;6.916;2023-06-14T13:41:09;31.40;25.80
76263;DHT22;65080;50.908;6.916;2023-06-14T13:43:37;31.50;25.80
76263;DHT22;65080;50.908;6.916;2023-06-14T13:46:05;31.60;25.70
76263;DHT22;65080;50.908;6.916;2023-06-14T13:48:35;31.60;25.70
76263;DHT22;65080;50.908;6.916;2023-06-14T13:51:03;31.70;25.60
76263;DHT22;65080;50.908;6.916;2023-06-14T13:53:31;31.70;25.50
76263;DHT22;65080;50.908;6.916;2023-06-14T13:55:59;31.70;25.50
76263;DHT22;65080;50.908;6.916;2023-06-14T13:58:28;31.90;25.60
76263;DHT22;65080;50.908;6.916;2023-06-14T14:00:56;32.10;25.60
76263;DHT22;65080;50.908;6.916;2023-06-14T14:03:26;32.40;25.40
76263;DHT22;65080;50.908;6.916;2023-06-14T14:05:56;32.60;25.10
76263;DHT22;65080;50.908;6.916;2023-06-14T14:08:24;32.80;24.70
76263;DHT22;65080;50.908;6.916;2023-06-14T14:10:52;32.90;24.50
76263;DHT22;65080;50.908;6.916;2023-06-14T14:13:21;32.90;24.10
76263;DHT22;65080;50.908;6.916;2023-06-14T14:15:49;32.70;24.20
76263;DHT22;65080;50.908;6.916;2023-06-14T14:18:18;32.70;24.20
76263;DHT22;65080;50.908;6.916;2023-06-14T14:20:48;32.60;24.20
76263;DHT22;65080;50.908;6.916;2023-06-14T14:23:18;32.70;24.30
76263;DHT22;65080;50.908;6.916;2023-06-14T14:25:47;32.80;24.20
76263;DHT22;65080;50.908;6.916;2023-06-14T14:28:15;33.00;24.10
76263;DHT22;65080;50.908;6.916;2023-06-14T14:30:46;33.00;23.90
76263;DHT22;65080;50.908;6.916;2023-06-14T14:33:15;32.90;23.80
76263;DHT22;65080;50.908;6.916;2023-06-14T14:35:44;32.70;23.90
76263;DHT22;65080;50.908;6.916;2023-06-14T14:38:14;32.70;24.00
76263;DHT22;65080;50.908;6.916;2023-06-14T14:40:44;32.80;24.10
76263;DHT22;65080;50.908;6.916;2023-06-14T14:43:12;32.60;24.20
76263;DHT22;65080;50.908;6.916;2023-06-14T14:45:41;32.60;24.30
76263;DHT22;65080;50.908;6.916;2023-06-14T14:48:09;32.60;24.30
76263;DHT22;65080;50.908;6.916;2023-06-14T14:50:37;32.60;24.30
76263;DHT22;65080;50.908;6.916;2023-06-14T14:53:06;32.70;24.10
76263;DHT22;65080;50.908;6.916;2023-06-14T14:55:34;32.90;24.20
76263;DHT22;65080;50.908;6.916;2023-06-14T14:58:05;33.10;24.10
76263;DHT22;65080;50.908;6.916;2023-06-14T15:00:35;33.40;23.80
76263;DHT22;65080;50.908;6.916;2023-06-14T15:03:03;33.50;23.80
76263;DHT22;65080;50.908;6.916;2023-06-14T15:05:32;33.60;23.70
76263;DHT22;65080;50.908;6.916;2023-06-14T15:08:00;33.60;23.50
76263;DHT22;65080;50.908;6.916;2023-06-14T15:10:28;33.50;23.40
76263;DHT22;65080;50.908;6.916;2023-06-14T15:12:56;33.50;23.40
76263;DHT22;65080;50.908;6.916;2023-06-14T15:15:26;33.60;23.60
76263;DHT22;65080;50.908;6.916;2023-06-14T15:17:54;33.70;23.70
76263;DHT22;65080;50.908;6.916;2023-06-14T15:20:23;33.90;23.70
76263;DHT22;65080;50.908;6.916;2023-06-14T15:22:51;34.10;23.50
76263;DHT22;65080;50.908;6.916;2023-06-14T15:25:19;34.40;23.40
76263;DHT22;65080;50.908;6.916;2023-06-14T15:27:48;34.40;23.20
76263;DHT22;65080;50.908;6.916;2023-06-14T15:30:16;33.90;23.10
76263;DHT22;65080;50.908;6.916;2023-06-14T15:32:46;33.60;23.50
76263;DHT22;65080;50.908;6.916;2023-06-14T15:35:16;33.40;23.50
76263;DHT22;65080;50.908;6.916;2023-06-14T15:37:44;33.50;23.50
76263;DHT22;65080;50.908;6.916;2023-06-14T15:40:12;33.60;23.50
76263;DHT22;65080;50.908;6.916;2023-06-14T15:42:42;33.50;23.40
76263;DHT22;65080;50.908;6.916;2023-06-14T15:45:10;33.50;23.50
76263;DHT22;65080;50.908;6.916;2023-06-14T15:47:39;33.40;23.60
76263;DHT22;65080;50.908;6.916;2023-06-14T15:50:09;33.00;23.50